sensor_id;sensor_type;location;lat;lon;timestamp;temperature;humidity
41142;SHT31;63666;52.284;20.890;2023-04-08T00:00:50;19.68;41.01
41142;SHT31;63666;52.284;20.890;2023-04-08T00:03:27;19.66;41.03
41142;SHT31;63666;52.284;20.890;2023-04-08T00:06:03;19.65;41.03
41142;SHT31;63666;52.284;20.890;2023-04-08T00:08:38;19.65;41.00
41142;SHT31;63666;52.284;20.890;2023-04-08T00:11:13;19.65;40.98
41142;SHT31;63666;52.284;20.890;2023-04-08T00:13:53;19.65;40.94
41142;SHT31;63666;52.284;20.890;2023-04-08T00:16:28;19.66;40.89
41142;SHT31;63666;52.284;20.890;2023-04-08T00:19:05;19.66;40.91
41142;SHT31;63666;52.284;20.890;2023-04-08T00:21:42;19.64;40.87
41142;SHT31;63666;52.284;20.890;2023-04-08T00:24:23;19.62;40.90
41142;SHT31;63666;52.284;20.890;2023-04-08T00:26:58;19.64;40.86
41142;SHT31;63666;52.284;20.890;2023-04-08T00:29:35;19.62;40.89
41142;SHT31;63666;52.284;20.890;2023-04-08T00:32:10;19.60;40.88
41142;SHT31;63666;52.284;20.890;2023-04-08T00:34:44;19.60;40.82
41142;SHT31;63666;52.284;20.890;2023-04-08T00:37:20;19.59;40.80
41142;SHT31;63666;52.284;20.890;2023-04-08T00:39:57;19.58;40.80
41142;SHT31;63666;52.284;20.890;2023-04-08T00:42:35;19.58;40.81
41142;SHT31;63666;52.284;20.890;2023-04-08T00:45:10;19.57;40.81
41142;SHT31;63666;52.284;20.890;2023-04-08T00:47:47;19.55;40.85
41142;SHT31;63666;52.284;20.890;2023-04-08T00:50:24;19.55;40.85
41142;SHT31;63666;52.284;20.890;2023-04-08T00:52:59;19.57;40.80
41142;SHT31;63666;52.284;20.890;2023-04-08T00:55:36;19.56;40.81
41142;SHT31;63666;52.284;20.890;2023-04-08T00:58:10;19.55;40.80
41142;SHT31;63666;52.284;20.890;2023-04-08T01:00:47;19.49;40.85
41142;SHT31;63666;52.284;20.890;2023-04-08T01:03:32;19.50;40.77
41142;SHT31;63666;52.284;20.890;2023-04-08T01:06:15;19.52;40.71
41142;SHT31;63666;52.284;20.890;2023-04-08T01:08:55;19.53;40.71
41142;SHT31;63666;52.284;20.890;2023-04-08T01:11:32;19.53;40.65
41142;SHT31;63666;52.284;20.890;2023-04-08T01:14:13;19.53;40.63
41142;SHT31;63666;52.284;20.890;2023-04-08T01:16:54;19.54;40.60
41142;SHT31;63666;52.284;20.890;2023-04-08T01:19:32;19.55;40.60
41142;SHT31;63666;52.284;20.890;2023-04-08T01:22:10;19.51;40.60
41142;SHT31;63666;52.284;20.890;2023-04-08T01:24:53;19.52;40.59
41142;SHT31;63666;52.284;20.890;2023-04-08T01:27:35;19.52;40.60
41142;SHT31;63666;52.284;20.890;2023-04-08T01:30:12;19.53;40.53
41142;SHT31;63666;52.284;20.890;2023-04-08T01:32:48;19.53;40.53
41142;SHT31;63666;52.284;20.890;2023-04-08T01:35:27;19.54;40.51
41142;SHT31;63666;52.284;20.890;2023-04-08T01:38:03;19.53;40.51
41142;SHT31;63666;52.284;20.890;2023-04-08T01:40:39;19.52;40.48
41142;SHT31;63666;52.284;20.890;2023-04-08T01:43:15;19.49;40.50
41142;SHT31;63666;52.284;20.890;2023-04-08T01:45:51;19.47;40.57
41142;SHT31;63666;52.284;20.890;2023-04-08T01:48:28;19.50;40.50
41142;SHT31;63666;52.284;20.890;2023-04-08T01:51:05;19.50;40.47
41142;SHT31;63666;52.284;20.890;2023-04-08T01:53:43;19.47;40.51
41142;SHT31;63666;52.284;20.890;2023-04-08T01:56:20;19.46;40.50
41142;SHT31;63666;52.284;20.890;2023-04-08T01:58:59;19.45;40.54
41142;SHT31;63666;52.284;20.890;2023-04-08T02:01:36;19.45;40.50
41142;SHT31;63666;52.284;20.890;2023-04-08T02:04:10;19.45;40.50
41142;SHT31;63666;52.284;20.890;2023-04-08T02:06:48;19.45;40.47
41142;SHT31;63666;52.284;20.890;2023-04-08T02:09:25;19.45;40.48
41142;SHT31;63666;52.284;20.890;2023-04-08T02:12:00;19.45;40.49
41142;SHT31;63666;52.284;20.890;2023-04-08T02:14:35;19.44;40.46
41142;SHT31;63666;52.284;20.890;2023-04-08T02:17:11;19.45;40.41
41142;SHT31;63666;52.284;20.890;2023-04-08T02:19:52;19.44;40.43
41142;SHT31;63666;52.284;20.890;2023-04-08T02:22:37;19.42;40.41
41142;SHT31;63666;52.284;20.890;2023-04-08T02:25:21;19.40;40.48
41142;SHT31;63666;52.284;20.890;2023-04-08T02:27:58;19.39;40.47
41142;SHT31;63666;52.284;20.890;2023-04-08T02:30:34;19.40;40.44
41142;SHT31;63666;52.284;20.890;2023-04-08T02:33:12;19.37;40.50
41142;SHT31;63666;52.284;20.890;2023-04-08T02:35:50;19.35;40.51
41142;SHT31;63666;52.284;20.890;2023-04-08T02:38:33;19.34;40.50
41142;SHT31;63666;52.284;20.890;2023-04-08T02:41:11;19.33;40.50
41142;SHT31;63666;52.284;20.890;2023-04-08T02:43:46;19.32;40.49
41142;SHT31;63666;52.284;20.890;2023-04-08T02:46:25;19.34;40.48
41142;SHT31;63666;52.284;20.890;2023-04-08T02:49:01;19.34;40.42
41142;SHT31;63666;52.284;20.890;2023-04-08T02:51:37;19.33;40.42
41142;SHT31;63666;52.284;20.890;2023-04-08T02:54:15;19.33;40.41
41142;SHT31;63666;52.284;20.890;2023-04-08T02:56:52;19.29;40.48
41142;SHT31;63666;52.284;20.890;2023-04-08T02:59:28;19.31;40.40
41142;SHT31;63666;52.284;20.890;2023-04-08T03:02:06;19.32;40.35
41142;SHT31;63666;52.284;20.890;2023-04-08T03:04:40;19.31;40.32
41142;SHT31;63666;52.284;20.890;2023-04-08T03:07:15;19.29;40.36
41142;SHT31;63666;52.284;20.890;2023-04-08T03:09:53;19.30;40.35
41142;SHT31;63666;52.284;20.890;2023-04-08T03:12:29;19.29;40.30
41142;SHT31;63666;52.284;20.890;2023-04-08T03:15:06;19.28;40.31
41142;SHT31;63666;52.284;20.890;2023-04-08T03:17:42;19.27;40.30
41142;SHT31;63666;52.284;20.890;2023-04-08T03:20:20;19.27;40.30
41142;SHT31;63666;52.284;20.890;2023-04-08T03:22:59;19.24;40.33
41142;SHT31;63666;52.284;20.890;2023-04-08T03:25:34;19.25;40.24
41142;SHT31;63666;52.284;20.890;2023-04-08T03:28:09;19.24;40.29
41142;SHT31;63666;52.284;20.890;2023-04-08T03:30:43;19.22;40.27
41142;SHT31;63666;52.284;20.890;2023-04-08T03:33:21;19.22;40.23
41142;SHT31;63666;52.284;20.890;2023-04-08T03:35:57;19.21;40.21
41142;SHT31;63666;52.284;20.890;2023-04-08T03:38:33;19.19;40.25
41142;SHT31;63666;52.284;20.890;2023-04-08T03:41:09;19.20;40.21
41142;SHT31;63666;52.284;20.890;2023-04-08T03:43:44;19.20;40.17
41142;SHT31;63666;52.284;20.890;2023-04-08T03:46:18;19.21;40.14
41142;SHT31;63666;52.284;20.890;2023-04-08T03:48:54;19.21;40.08
41142;SHT31;63666;52.284;20.890;2023-04-08T03:51:30;19.20;40.10
41142;SHT31;63666;52.284;20.890;2023-04-08T03:54:06;19.19;40.09
41142;SHT31;63666;52.284;20.890;2023-04-08T03:56:44;19.19;40.05
41142;SHT31;63666;52.284;20.890;2023-04-08T03:59:18;19.19;40.05
41142;SHT31;63666;52.284;20.890;2023-04-08T04:01:57;19.17;40.07
41142;SHT31;63666;52.284;20.890;2023-04-08T04:04:34;19.16;40.03
41142;SHT31;63666;52.284;20.890;2023-04-08T04:07:10;19.19;39.95
41142;SHT31;63666;52.284;20.890;2023-04-08T04:09:45;19.18;39.94
41142;SHT31;63666;52.284;20.890;2023-04-08T04:12:24;19.19;39.89
41142;SHT31;63666;52.284;20.890;2023-04-08T04:15:00;19.18;39.88
41142;SHT31;63666;52.284;20.890;2023-04-08T04:17:36;19.19;39.85
41142;SHT31;63666;52.284;20.890;2023-04-08T04:20:12;19.19;39.81
41142;SHT31;63666;52.284;20.890;2023-04-08T04:22:47;19.20;39.76
41142;SHT31;63666;52.284;20.890;2023-04-08T04:25:21;19.20;39.75
41142;SHT31;63666;52.284;20.890;2023-04-08T04:27:57;19.19;39.74
41142;SHT31;63666;52.284;20.890;2023-04-08T04:30:31;19.20;39.69
41142;SHT31;63666;52.284;20.890;2023-04-08T04:33:07;19.21;39.63
41142;SHT31;63666;52.284;20.890;2023-04-08T04:35:43;19.26;39.55
41142;SHT31;63666;52.284;20.890;2023-04-08T04:38:18;19.29;39.45
41142;SHT31;63666;52.284;20.890;2023-04-08T04:40:53;19.31;39.40
41142;SHT31;63666;52.284;20.890;2023-04-08T04:43:27;19.35;39.28
41142;SHT31;63666;52.284;20.890;2023-04-08T04:46:05;19.43;39.15
41142;SHT31;63666;52.284;20.890;2023-04-08T04:48:39;19.51;38.95
41142;SHT31;63666;52.284;20.890;2023-04-08T04:51:15;19.73;38.55
41142;SHT31;63666;52.284;20.890;2023-04-08T04:53:51;20.00;38.00
41142;SHT31;63666;52.284;20.890;2023-04-08T04:56:28;20.12;37.76
41142;SHT31;63666;52.284;20.890;2023-04-08T04:59:05;20.30;37.41
41142;SHT31;63666;52.284;20.890;2023-04-08T05:01:40;20.50;37.04
41142;SHT31;63666;52.284;20.890;2023-04-08T05:04:18;20.68;36.72
41142;SHT31;63666;52.284;20.890;2023-04-08T05:06:54;20.83;36.43
41142;SHT31;63666;52.284;20.890;2023-04-08T05:09:30;20.98;36.10
41142;SHT31;63666;52.284;20.890;2023-04-08T05:12:05;21.04;36.00
41142;SHT31;63666;52.284;20.890;2023-04-08T05:14:38;20.91;36.19
41142;SHT31;63666;52.284;20.890;2023-04-08T05:17:13;20.46;37.01
41142;SHT31;63666;52.284;20.890;2023-04-08T05:19:50;20.03;37.80
41142;SHT31;63666;52.284;20.890;2023-04-08T05:22:26;19.82;38.20
41142;SHT31;63666;52.284;20.890;2023-04-08T05:25:01;19.70;38.45
41142;SHT31;63666;52.284;20.890;2023-04-08T05:27:37;19.65;38.56
41142;SHT31;63666;52.284;20.890;2023-04-08T05:30:13;19.62;38.65
41142;SHT31;63666;52.284;20.890;2023-04-08T05:32:49;19.58;38.70
41142;SHT31;63666;52.284;20.890;2023-04-08T05:35:28;19.59;38.70
41142;SHT31;63666;52.284;20.890;2023-04-08T05:38:04;19.57;38.75
41142;SHT31;63666;52.284;20.890;2023-04-08T05:40:40;19.58;38.71
41142;SHT31;63666;52.284;20.890;2023-04-08T05:43:17;19.58;38.70
41142;SHT31;63666;52.284;20.890;2023-04-08T05:45:52;19.54;38.77
41142;SHT31;63666;52.284;20.890;2023-04-08T05:48:29;19.50;38.87
41142;SHT31;63666;52.284;20.890;2023-04-08T05:51:05;19.52;38.83
41142;SHT31;63666;52.284;20.890;2023-04-08T05:53:46;19.53;38.82
41142;SHT31;63666;52.284;20.890;2023-04-08T05:56:23;19.52;38.89
41142;SHT31;63666;52.284;20.890;2023-04-08T05:59:00;19.56;38.80
41142;SHT31;63666;52.284;20.890;2023-04-08T06:01:35;19.56;38.82
41142;SHT31;63666;52.284;20.890;2023-04-08T06:04:11;19.57;38.80
41142;SHT31;63666;52.284;20.890;2023-04-08T06:06:47;19.57;38.84
41142;SHT31;63666;52.284;20.890;2023-04-08T06:09:22;19.58;38.80
41142;SHT31;63666;52.284;20.890;2023-04-08T06:11:56;19.60;38.75
41142;SHT31;63666;52.284;20.890;2023-04-08T06:14:32;19.61;38.74
41142;SHT31;63666;52.284;20.890;2023-04-08T06:17:06;19.62;38.72
41142;SHT31;63666;52.284;20.890;2023-04-08T06:19:43;19.63;38.72
41142;SHT31;63666;52.284;20.890;2023-04-08T06:22:19;19.64;38.72
41142;SHT31;63666;52.284;20.890;2023-04-08T06:24:55;19.66;38.70
41142;SHT31;63666;52.284;20.890;2023-04-08T06:27:31;19.67;38.71
41142;SHT31;63666;52.284;20.890;2023-04-08T06:30:06;19.70;38.67
41142;SHT31;63666;52.284;20.890;2023-04-08T06:32:43;19.71;38.60
41142;SHT31;63666;52.284;20.890;2023-04-08T06:35:19;19.73;38.60
41142;SHT31;63666;52.284;20.890;2023-04-08T06:37:55;19.75;38.60
41142;SHT31;63666;52.284;20.890;2023-04-08T06:40:32;19.77;38.54
41142;SHT31;63666;52.284;20.890;2023-04-08T06:43:06;19.77;38.55
41142;SHT31;63666;52.284;20.890;2023-04-08T06:45:43;19.79;38.57
41142;SHT31;63666;52.284;20.890;2023-04-08T06:48:20;19.80;38.54
41142;SHT31;63666;52.284;20.890;2023-04-08T06:51:00;19.81;38.57
41142;SHT31;63666;52.284;20.890;2023-04-08T06:53:38;19.84;38.53
41142;SHT31;63666;52.284;20.890;2023-04-08T06:56:14;19.84;38.59
41142;SHT31;63666;52.284;20.890;2023-04-08T06:58:50;19.86;38.59
41142;SHT31;63666;52.284;20.890;2023-04-08T07:01:27;19.88;38.56
41142;SHT31;63666;52.284;20.890;2023-04-08T07:04:04;19.89;38.53
41142;SHT31;63666;52.284;20.890;2023-04-08T07:06:40;19.91;38.56
41142;SHT31;63666;52.284;20.890;2023-04-08T07:09:19;19.93;38.54
41142;SHT31;63666;52.284;20.890;2023-04-08T07:11:53;19.95;38.51
41142;SHT31;63666;52.284;20.890;2023-04-08T07:14:30;19.97;38.52
41142;SHT31;63666;52.284;20.890;2023-04-08T07:17:07;19.98;38.58
41142;SHT31;63666;52.284;20.890;2023-04-08T07:19:42;20.00;38.53
41142;SHT31;63666;52.284;20.890;2023-04-08T07:22:18;20.03;38.48
41142;SHT31;63666;52.284;20.890;2023-04-08T07:24:54;20.05;38.49
41142;SHT31;63666;52.284;20.890;2023-04-08T07:27:32;20.06;38.43
41142;SHT31;63666;52.284;20.890;2023-04-08T07:30:09;20.06;38.47
41142;SHT31;63666;52.284;20.890;2023-04-08T07:32:45;20.08;38.45
41142;SHT31;63666;52.284;20.890;2023-04-08T07:35:21;20.09;38.45
41142;SHT31;63666;52.284;20.890;2023-04-08T07:38:00;20.14;38.40
41142;SHT31;63666;52.284;20.890;2023-04-08T07:40:41;20.16;38.38
41142;SHT31;63666;52.284;20.890;2023-04-08T07:43:17;20.17;38.35
41142;SHT31;63666;52.284;20.890;2023-04-08T07:45:52;20.18;38.36
41142;SHT31;63666;52.284;20.890;2023-04-08T07:48:31;20.21;38.38
41142;SHT31;63666;52.284;20.890;2023-04-08T07:51:08;20.22;38.31
41142;SHT31;63666;52.284;20.890;2023-04-08T07:53:46;20.23;38.34
41142;SHT31;63666;52.284;20.890;2023-04-08T07:56:22;20.23;38.37
41142;SHT31;63666;52.284;20.890;2023-04-08T07:58:56;20.25;38.33
41142;SHT31;63666;52.284;20.890;2023-04-08T08:01:29;20.26;38.31
41142;SHT31;63666;52.284;20.890;2023-04-08T08:04:05;20.29;38.30
41142;SHT31;63666;52.284;20.890;2023-04-08T08:06:43;20.32;38.28
41142;SHT31;63666;52.284;20.890;2023-04-08T08:09:17;20.35;38.21
41142;SHT31;63666;52.284;20.890;2023-04-08T08:11:54;20.37;38.21
41142;SHT31;63666;52.284;20.890;2023-04-08T08:14:27;20.39;38.20
41142;SHT31;63666;52.284;20.890;2023-04-08T08:17:03;20.40;38.22
41142;SHT31;63666;52.284;20.890;2023-04-08T08:19:39;20.41;38.20
41142;SHT31;63666;52.284;20.890;2023-04-08T08:22:14;20.43;38.12
41142;SHT31;63666;52.284;20.890;2023-04-08T08:24:47;20.46;38.10
41142;SHT31;63666;52.284;20.890;2023-04-08T08:27:27;20.48;38.10
41142;SHT31;63666;52.284;20.890;2023-04-08T08:30:04;20.50;38.01
41142;SHT31;63666;52.284;20.890;2023-04-08T08:32:40;20.52;38.00
41142;SHT31;63666;52.284;20.890;2023-04-08T08:35:15;20.55;37.97
41142;SHT31;63666;52.284;20.890;2023-04-08T08:37:50;20.58;38.00
41142;SHT31;63666;52.284;20.890;2023-04-08T08:40:25;20.60;37.98
41142;SHT31;63666;52.284;20.890;2023-04-08T08:43:02;20.63;38.00
41142;SHT31;63666;52.284;20.890;2023-04-08T08:45:40;20.65;37.96
41142;SHT31;63666;52.284;20.890;2023-04-08T08:48:19;20.67;37.97
41142;SHT31;63666;52.284;20.890;2023-04-08T08:50:53;20.71;37.93
41142;SHT31;63666;52.284;20.890;2023-04-08T08:53:29;20.74;37.95
41142;SHT31;63666;52.284;20.890;2023-04-08T08:56:08;20.76;37.93
41142;SHT31;63666;52.284;20.890;2023-04-08T08:58:47;20.78;37.91
41142;SHT31;63666;52.284;20.890;2023-04-08T09:01:31;20.81;37.85
41142;SHT31;63666;52.284;20.890;2023-04-08T09:04:07;20.86;37.79
41142;SHT31;63666;52.284;20.890;2023-04-08T09:06:45;20.90;37.73
41142;SHT31;63666;52.284;20.890;2023-04-08T09:09:48;20.93;37.70
41142;SHT31;63666;52.284;20.890;2023-04-08T09:12:21;20.97;37.64
41142;SHT31;63666;52.284;20.890;2023-04-08T09:15:04;20.99;37.60
41142;SHT31;63666;52.284;20.890;2023-04-08T09:17:41;21.04;37.58
41142;SHT31;63666;52.284;20.890;2023-04-08T09:20:15;21.08;37.53
41142;SHT31;63666;52.284;20.890;2023-04-08T09:22:55;21.11;37.56
41142;SHT31;63666;52.284;20.890;2023-04-08T09:25:31;21.14;37.53
41142;SHT31;63666;52.284;20.890;2023-04-08T09:28:07;21.19;37.49
41142;SHT31;63666;52.284;20.890;2023-04-08T09:30:53;21.24;37.48
41142;SHT31;63666;52.284;20.890;2023-04-08T09:33:31;21.27;37.48
41142;SHT31;63666;52.284;20.890;2023-04-08T09:36:09;21.30;37.47
41142;SHT31;63666;52.284;20.890;2023-04-08T09:38:43;21.34;37.40
41142;SHT31;63666;52.284;20.890;2023-04-08T09:41:19;21.38;37.41
41142;SHT31;63666;52.284;20.890;2023-04-08T09:43:57;21.43;37.39
41142;SHT31;63666;52.284;20.890;2023-04-08T09:46:35;21.48;37.31
41142;SHT31;63666;52.284;20.890;2023-04-08T09:49:24;21.52;37.30
41142;SHT31;63666;52.284;20.890;2023-04-08T09:52:05;21.55;37.28
41142;SHT31;63666;52.284;20.890;2023-04-08T09:54:49;21.59;37.20
41142;SHT31;63666;52.284;20.890;2023-04-08T09:57:30;21.62;37.12
41142;SHT31;63666;52.284;20.890;2023-04-08T10:00:16;21.65;37.13
41142;SHT31;63666;52.284;20.890;2023-04-08T10:02:56;21.67;37.04
41142;SHT31;63666;52.284;20.890;2023-04-08T10:05:39;21.69;37.05
41142;SHT31;63666;52.284;20.890;2023-04-08T10:08:15;21.71;37.01
41142;SHT31;63666;52.284;20.890;2023-04-08T10:10:50;21.72;36.95
41142;SHT31;63666;52.284;20.890;2023-04-08T10:13:25;21.74;36.93
41142;SHT31;63666;52.284;20.890;2023-04-08T10:19:01;21.76;36.86
41142;SHT31;63666;52.284;20.890;2023-04-08T10:25:28;21.81;36.81
41142;SHT31;63666;52.284;20.890;2023-04-08T10:30:59;21.86;36.81
41142;SHT31;63666;52.284;20.890;2023-04-08T10:33:34;21.89;36.82
41142;SHT31;63666;52.284;20.890;2023-04-08T10:36:12;21.91;36.80
41142;SHT31;63666;52.284;20.890;2023-04-08T10:38:48;21.95;36.83
41142;SHT31;63666;52.284;20.890;2023-04-08T10:41:24;21.97;36.79
41142;SHT31;63666;52.284;20.890;2023-04-08T10:43:58;21.99;36.78
41142;SHT31;63666;52.284;20.890;2023-04-08T10:46:37;22.02;36.72
41142;SHT31;63666;52.284;20.890;2023-04-08T10:49:17;22.05;36.63
41142;SHT31;63666;52.284;20.890;2023-04-08T10:51:54;22.07;36.60
41142;SHT31;63666;52.284;20.890;2023-04-08T10:54:29;22.08;36.57
41142;SHT31;63666;52.284;20.890;2023-04-08T10:57:04;22.10;36.53
41142;SHT31;63666;52.284;20.890;2023-04-08T10:59:40;22.12;36.45
41142;SHT31;63666;52.284;20.890;2023-04-08T11:02:18;22.16;36.50
41142;SHT31;63666;52.284;20.890;2023-04-08T11:04:55;22.17;36.50
41142;SHT31;63666;52.284;20.890;2023-04-08T11:07:33;22.19;36.47
41142;SHT31;63666;52.284;20.890;2023-04-08T11:10:12;22.21;36.44
41142;SHT31;63666;52.284;20.890;2023-04-08T11:12:45;22.22;36.37
41142;SHT31;63666;52.284;20.890;2023-04-08T11:15:20;22.25;36.40
41142;SHT31;63666;52.284;20.890;2023-04-08T11:17:55;22.27;36.41
41142;SHT31;63666;52.284;20.890;2023-04-08T11:20:34;22.29;36.39
41142;SHT31;63666;52.284;20.890;2023-04-08T11:23:13;22.30;36.42
41142;SHT31;63666;52.284;20.890;2023-04-08T11:25:55;22.31;36.37
41142;SHT31;63666;52.284;20.890;2023-04-08T11:28:39;22.34;36.36
41142;SHT31;63666;52.284;20.890;2023-04-08T11:31:17;22.36;36.37
41142;SHT31;63666;52.284;20.890;2023-04-08T11:33:55;22.36;36.40
41142;SHT31;63666;52.284;20.890;2023-04-08T11:36:32;22.36;36.37
41142;SHT31;63666;52.284;20.890;2023-04-08T11:39:10;22.38;36.36
41142;SHT31;63666;52.284;20.890;2023-04-08T11:41:45;22.41;36.31
41142;SHT31;63666;52.284;20.890;2023-04-08T11:44:19;22.44;36.28
41142;SHT31;63666;52.284;20.890;2023-04-08T11:47:02;22.46;36.30
41142;SHT31;63666;52.284;20.890;2023-04-08T11:49:45;22.46;36.24
41142;SHT31;63666;52.284;20.890;2023-04-08T11:52:19;22.44;36.24
41142;SHT31;63666;52.284;20.890;2023-04-08T11:55:12;22.44;36.21
41142;SHT31;63666;52.284;20.890;2023-04-08T11:57:53;22.45;36.25
41142;SHT31;63666;52.284;20.890;2023-04-08T12:00:32;22.45;36.30
41142;SHT31;63666;52.284;20.890;2023-04-08T12:03:07;22.48;36.27
41142;SHT31;63666;52.284;20.890;2023-04-08T12:05:42;22.49;36.29
41142;SHT31;63666;52.284;20.890;2023-04-08T12:08:17;22.52;36.25
41142;SHT31;63666;52.284;20.890;2023-04-08T12:10:53;22.55;36.20
41142;SHT31;63666;52.284;20.890;2023-04-08T12:13:44;22.57;36.10
41142;SHT31;63666;52.284;20.890;2023-04-08T12:16:21;22.57;36.05
41142;SHT31;63666;52.284;20.890;2023-04-08T12:18:59;22.48;36.17
41142;SHT31;63666;52.284;20.890;2023-04-08T12:21:33;22.47;36.25
41142;SHT31;63666;52.284;20.890;2023-04-08T12:24:07;22.42;36.36
41142;SHT31;63666;52.284;20.890;2023-04-08T12:26:41;22.51;36.22
41142;SHT31;63666;52.284;20.890;2023-04-08T12:29:16;22.64;36.02
41142;SHT31;63666;52.284;20.890;2023-04-08T12:31:51;22.65;35.97
41142;SHT31;63666;52.284;20.890;2023-04-08T12:34:28;22.62;36.09
41142;SHT31;63666;52.284;20.890;2023-04-08T12:37:05;22.50;36.20
41142;SHT31;63666;52.284;20.890;2023-04-08T12:39:39;22.45;36.32
41142;SHT31;63666;52.284;20.890;2023-04-08T12:42:15;22.44;36.34
41142;SHT31;63666;52.284;20.890;2023-04-08T12:44:50;22.47;36.32
41142;SHT31;63666;52.284;20.890;2023-04-08T12:47:25;22.39;36.42
41142;SHT31;63666;52.284;20.890;2023-04-08T12:50:01;22.31;36.60
41142;SHT31;63666;52.284;20.890;2023-04-08T12:52:39;22.31;36.61
41142;SHT31;63666;52.284;20.890;2023-04-08T12:55:12;22.36;36.53
41142;SHT31;63666;52.284;20.890;2023-04-08T12:57:49;22.44;36.44
41142;SHT31;63666;52.284;20.890;2023-04-08T13:00:26;22.46;36.32
41142;SHT31;63666;52.284;20.890;2023-04-08T13:03:01;22.47;36.31
41142;SHT31;63666;52.284;20.890;2023-04-08T13:05:37;22.45;36.36
41142;SHT31;63666;52.284;20.890;2023-04-08T13:08:16;22.50;36.32
41142;SHT31;63666;52.284;20.890;2023-04-08T13:10:53;22.42;36.41
41142;SHT31;63666;52.284;20.890;2023-04-08T13:13:28;22.35;36.54
41142;SHT31;63666;52.284;20.890;2023-04-08T13:16:02;22.31;36.59
41142;SHT31;63666;52.284;20.890;2023-04-08T13:18:37;22.29;36.61
41142;SHT31;63666;52.284;20.890;2023-04-08T13:21:12;22.41;36.42
41142;SHT31;63666;52.284;20.890;2023-04-08T13:23:49;22.42;36.39
41142;SHT31;63666;52.284;20.890;2023-04-08T13:26:24;22.45;36.37
41142;SHT31;63666;52.284;20.890;2023-04-08T13:29:04;22.49;36.33
41142;SHT31;63666;52.284;20.890;2023-04-08T13:31:40;22.50;36.29
41142;SHT31;63666;52.284;20.890;2023-04-08T13:34:16;22.56;36.16
41142;SHT31;63666;52.284;20.890;2023-04-08T13:36:51;22.61;36.10
41142;SHT31;63666;52.284;20.890;2023-04-08T13:39:26;22.57;36.21
41142;SHT31;63666;52.284;20.890;2023-04-08T13:41:59;22.58;36.21
41142;SHT31;63666;52.284;20.890;2023-04-08T13:44:35;22.53;36.16
41142;SHT31;63666;52.284;20.890;2023-04-08T13:47:12;22.49;36.33
41142;SHT31;63666;52.284;20.890;2023-04-08T13:49:49;22.47;36.36
41142;SHT31;63666;52.284;20.890;2023-04-08T13:52:26;22.47;36.32
41142;SHT31;63666;52.284;20.890;2023-04-08T13:55:02;22.41;36.44
41142;SHT31;63666;52.284;20.890;2023-04-08T13:57:40;22.38;36.53
41142;SHT31;63666;52.284;20.890;2023-04-08T14:00:16;22.37;36.53
41142;SHT31;63666;52.284;20.890;2023-04-08T14:02:54;22.37;36.55
41142;SHT31;63666;52.284;20.890;2023-04-08T14:05:33;22.35;36.60
41142;SHT31;63666;52.284;20.890;2023-04-08T14:08:10;22.31;36.66
41142;SHT31;63666;52.284;20.890;2023-04-08T14:10:48;22.31;36.66
41142;SHT31;63666;52.284;20.890;2023-04-08T14:13:25;22.28;36.69
41142;SHT31;63666;52.284;20.890;2023-04-08T14:16:00;22.25;36.70
41142;SHT31;63666;52.284;20.890;2023-04-08T14:18:37;22.23;36.72
41142;SHT31;63666;52.284;20.890;2023-04-08T14:21:13;22.20;36.78
41142;SHT31;63666;52.284;20.890;2023-04-08T14:23:51;22.20;36.82
41142;SHT31;63666;52.284;20.890;2023-04-08T14:26:29;22.19;36.87
41142;SHT31;63666;52.284;20.890;2023-04-08T14:29:05;22.17;36.86
41142;SHT31;63666;52.284;20.890;2023-04-08T14:31:41;22.17;36.87
41142;SHT31;63666;52.284;20.890;2023-04-08T14:34:18;22.16;36.91
41142;SHT31;63666;52.284;20.890;2023-04-08T14:36:55;22.12;36.98
41142;SHT31;63666;52.284;20.890;2023-04-08T14:39:31;22.10;36.99
41142;SHT31;63666;52.284;20.890;2023-04-08T14:42:06;22.08;37.00
41142;SHT31;63666;52.284;20.890;2023-04-08T14:44:44;22.07;37.04
41142;SHT31;63666;52.284;20.890;2023-04-08T14:47:20;22.07;37.01
41142;SHT31;63666;52.284;20.890;2023-04-08T14:49:57;22.05;37.02
41142;SHT31;63666;52.284;20.890;2023-04-08T14:52:34;22.04;37.00
41142;SHT31;63666;52.284;20.890;2023-04-08T14:55:11;22.02;37.10
41142;SHT31;63666;52.284;20.890;2023-04-08T14:57:46;21.99;37.12
41142;SHT31;63666;52.284;20.890;2023-04-08T15:00:23;21.99;37.13
41142;SHT31;63666;52.284;20.890;2023-04-08T15:02:57;21.98;37.12
41142;SHT31;63666;52.284;20.890;2023-04-08T15:05:32;21.96;37.14
41142;SHT31;63666;52.284;20.890;2023-04-08T15:08:09;21.96;37.18
41142;SHT31;63666;52.284;20.890;2023-04-08T15:10:46;21.93;37.20
41142;SHT31;63666;52.284;20.890;2023-04-08T15:13:21;21.91;37.20
41142;SHT31;63666;52.284;20.890;2023-04-08T15:15:57;21.88;37.22
41142;SHT31;63666;52.284;20.890;2023-04-08T15:18:31;21.86;37.26
41142;SHT31;63666;52.284;20.890;2023-04-08T15:21:06;21.85;37.28
41142;SHT31;63666;52.284;20.890;2023-04-08T15:23:42;21.81;37.32
41142;SHT31;63666;52.284;20.890;2023-04-08T15:26:17;21.79;37.38
41142;SHT31;63666;52.284;20.890;2023-04-08T15:28:55;21.78;37.36
41142;SHT31;63666;52.284;20.890;2023-04-08T15:31:29;21.77;37.42
41142;SHT31;63666;52.284;20.890;2023-04-08T15:34:07;21.76;37.34
41142;SHT31;63666;52.284;20.890;2023-04-08T15:36:42;21.75;37.47
41142;SHT31;63666;52.284;20.890;2023-04-08T15:39:17;21.74;37.49
41142;SHT31;63666;52.284;20.890;2023-04-08T15:41:55;21.72;37.48
41142;SHT31;63666;52.284;20.890;2023-04-08T15:44:34;21.69;37.50
41142;SHT31;63666;52.284;20.890;2023-04-08T15:47:11;21.67;37.52
41142;SHT31;63666;52.284;20.890;2023-04-08T15:49:50;21.64;37.54
41142;SHT31;63666;52.284;20.890;2023-04-08T15:52:26;21.62;37.58
41142;SHT31;63666;52.284;20.890;2023-04-08T15:55:04;21.59;37.59
41142;SHT31;63666;52.284;20.890;2023-04-08T15:57:40;21.59;37.60
41142;SHT31;63666;52.284;20.890;2023-04-08T16:00:17;21.56;37.60
41142;SHT31;63666;52.284;20.890;2023-04-08T16:02:51;21.55;37.63
41142;SHT31;63666;52.284;20.890;2023-04-08T16:05:26;21.52;37.65
41142;SHT31;63666;52.284;20.890;2023-04-08T16:08:04;21.51;37.65
41142;SHT31;63666;52.284;20.890;2023-04-08T16:10:41;21.51;37.65
41142;SHT31;63666;52.284;20.890;2023-04-08T16:13:17;21.49;37.70
41142;SHT31;63666;52.284;20.890;2023-04-08T16:15:57;21.48;37.69
41142;SHT31;63666;52.284;20.890;2023-04-08T16:18:38;21.46;37.70
41142;SHT31;63666;52.284;20.890;2023-04-08T16:21:18;21.45;37.70
41142;SHT31;63666;52.284;20.890;2023-04-08T16:23:54;21.44;37.71